LexMAWeather

Lexington, Massachusetts, USA

51°F
2/24/2018 2:59pm 
  • Lexington Conditions: Overcast
  • Temperature: 51.4°F / 10.8°C 
  • Dew Point: 37.6°FDecreased 0.9°Fsince last hour.
  • Humidity: 59%Decreased 2.0% since last hour.
  • Wind: WNW 2 mph, gust: 3 mph
  • Barometer: 30.08 in Steady
  • Visibility: 10 miles
  • Rain Today: 0.00 in
  •   
Winter Weather Advisory WINTER WEATHER ADVISORY - Middlesex County

Nearby Reports - Official Weather Stations - Current Conditions

Data from the National Weather Service

KBED - Bedford, Massachusetts, USA


Distance from station: WNW 4mi, 6km

Updated Sat Feb 24, 2018 2:56pm EST

Overcast

Overcast

Wind from WNW

Wind:

WNW 8 mph , 13 km/h

Temperature: 52°F (11°C)

Dew Point: 34°F (1°C)

Humidity: 50%

Barometer: 30.10 in (1019.3 hPa)

Clouds: Overcast

Visibility: 10 miles (16 km)

Cloud details: Overcast 10000 ft


2018/02/24 19:56 KBED 241956Z 30007KT 10SM OVC100 11/01 A3010 RMK AO2 SLP208 T01110006

KBOS - Boston, Massachusetts, USA


Distance from station: ESE 12mi, 20km

Updated Sat Feb 24, 2018 2:54pm EST

Overcast

Overcast

Wind from NW

Wind:

NW 10 mph , 17 km/h

Temperature: 54°F (12°C)

Dew Point: 36°F (2°C)

Humidity: 51%

Barometer: 30.11 in (1019.6 hPa)

Clouds: Overcast

Visibility: 10 miles (16 km)

Cloud details: Overcast 9000 ft


2018/02/24 19:54 KBOS 241954Z 31009KT 10SM OVC090 12/02 A3011 RMK AO2 SLP197 T01170017

KOWD - Norwood, Massachusetts, USA


Distance from station: SSE 18mi, 29km

Updated Sat Feb 24, 2018 2:53pm EST

Overcast

Overcast

Wind from W

Wind:

W 3 mph , 6 km/h

Temperature: 54°F (12°C)

Dew Point: 36°F (2°C)

Humidity: 51%

Barometer: 30.11 in (1019.6 hPa)

Clouds: Overcast

Visibility: 10 miles (16 km)

Cloud details: Partly cloudy 6500 ft
Overcast 8500 ft


2018/02/24 19:53 KOWD 241953Z 26003KT 10SM SCT065 OVC085 12/02 A3011 RMK AO2 SLP195 T01170022

KBVY - Beverly, Massachusetts, USA


Distance from station: ENE 19mi, 31km

Updated Sat Feb 24, 2018 2:53pm EST

Mostly cloudy

Mostly cloudy

Wind from W

Wind:

W 7 mph , 11 km/h

Temperature: 52°F (11°C)

Dew Point: 34°F (1°C)

Humidity: 50%

Barometer: 30.10 in (1019.3 hPa)

Clouds: Mostly cloudy

Visibility: 10 miles (16 km)

Cloud details: Mostly cloudy 11000 ft


2018/02/24 19:53 KBVY 241953Z 28006KT 10SM BKN110 11/01 A3010 RMK AO2 SLP191 T01110011

KLWM - Lawrence, Massachusetts, USA


Distance from station: NNE 20mi, 32km

Updated Sat Feb 24, 2018 2:54pm EST

Overcast

Overcast

Wind from WNW

Wind:

WNW 12 mph , 19 km/h

Temperature: 52°F (11°C)

Dew Point: 30°F (-1°C)

Humidity: 44%

Barometer: 30.13 in (1020.3 hPa)

Clouds: Overcast

Visibility: 10 miles (16 km)

Cloud details: Overcast 11000 ft


2018/02/24 19:54 KLWM 241954Z 30010KT 10SM OVC110 11/M01 A3013 RMK AO2 SLP202 T01111011

KFIT - Fitchburg, Massachusetts, USA


Distance from station: WNW 27mi, 44km

Updated Sat Feb 24, 2018 2:52pm EST

Mostly cloudy

Mostly cloudy

Wind from WNW

Wind:

WNW 7 mph , 11 km/h

Temperature: 52°F (11°C)

Dew Point: 34°F (1°C)

Humidity: 50%

Barometer: 30.12 in (1020 hPa)

Clouds: Mostly cloudy

Visibility: 10 miles (16 km)

Cloud details: Mostly cloudy 10000 ft
Mostly cloudy 12000 ft


2018/02/24 19:52 KFIT 241952Z AUTO 30006KT 10SM BKN100 BKN120 11/01 A3012 RMK AO2 SLP200 T01110011 TSNO

KASH - Nashua/Boire Fld, New Hampshire, USA


Distance from station: NNW 28mi, 44km

Updated Sat Feb 24, 2018 2:56pm EST

Overcast

Overcast

Wind from NW

Wind:

NW 8 mph , 13 km/h

Temperature: 50°F (10°C)

Wind Chill: 47°F (8°C)

Dew Point: 32°F (0°C)

Humidity: 50%

Barometer: 30.11 in (1019.6 hPa)

Clouds: Overcast

Visibility: 10 miles (16 km)

Cloud details: Overcast 11000 ft


2018/02/24 19:56 KASH 241956Z 31007KT 10SM OVC110 10/00 A3011 RMK AO2 SLPNO T01000000

KORH - Worcester, Massachusetts, USA


Distance from station: WSW 34mi, 55km

Updated Sat Feb 24, 2018 2:54pm EST

Overcast

Overcast

Wind from NW

Wind:

NW 9 mph , 15 km/h

Temperature: 46°F (8°C)

Wind Chill: 41°F (5°C)

Dew Point: 30°F (-1°C)

Humidity: 53%

Barometer: 30.09 in (1019 hPa)

Clouds: Overcast

Visibility: 10 miles (16 km)

Cloud details: Overcast 10000 ft


2018/02/24 19:54 KORH 241954Z 31008KT 10SM OVC100 08/M01 A3009 RMK AO2 RAB1859E07 SLP198 P0000 T00781006 $

KMHT - Manchester, New Hampshire, USA


Distance from station: NNW 35mi, 57km

Updated Sat Feb 24, 2018 2:53pm EST

Overcast

Overcast

Wind from NW

Wind:

NW 8 mph , 13 km/h

Temperature: 50°F (10°C)

Wind Chill: 47°F (8°C)

Dew Point: 28°F (-2°C)

Humidity: 43%

Barometer: 30.09 in (1019 hPa)

Clouds: Overcast

Visibility: 10 miles (16 km)

Cloud details: Few Clouds 4000 ft
Overcast 12000 ft


2018/02/24 19:53 KMHT 241953Z 31007KT 10SM FEW040 OVC120 10/M02 A3009 RMK AO2 SLP204 T01001017

KGHG - Marshfield, Massachusetts, USA


Distance from station: SE 38mi, 60km

Updated Sat Feb 24, 2018 2:55pm EST

Light drizzle, Partly cloudy

Light drizzle, Partly cloudy

Wind from WNW

Wind:

WNW 5 mph , 7 km/h

Temperature: 54°F (12°C)

Dew Point: 37°F (3°C)

Humidity: 54%

Barometer: 30.11 in (1019.6 hPa)

Summary: Light Drizzle

Clouds: Partly cloudy

Visibility: 9 miles (14 km)

Cloud details: Few Clouds 3200 ft
Partly cloudy 4100 ft
Partly cloudy 4900 ft


2018/02/24 19:55 KGHG 241955Z AUTO 29004KT 9SM -DZ FEW032 SCT041 SCT049 12/03 A3011 RMK AO2

KSFZ - Pawtucket, Rhode Island, USA


Distance from station: SSW 39mi, 62km

Updated Sat Feb 24, 2018 2:56pm EST

Rain, Overcast

Rain, Overcast

Temperature: 48°F (9°C)

Dew Point: 37°F (3°C)

Humidity: 66%

Barometer: 30.11 in (1019.6 hPa)

Summary: Rain

Clouds: Overcast

Visibility: 10 miles (16 km)

Cloud details: Few Clouds 5000 ft
Partly cloudy 6000 ft
Overcast 7500 ft


2018/02/24 19:56 KSFZ 241956Z AUTO 10SM RA FEW050 SCT060 OVC075 09/03 A3011 RMK AO2 RAB34 SLP143 P0000 T00940033 $

KTAN - Taunton, Massachusetts, USA


Distance from station: SSE 40mi, 65km

Updated Sat Feb 24, 2018 2:52pm EST

Light rain, Overcast

Light rain, Overcast

Wind from NNW

Wind:

NNW 5 mph , 7 km/h

Temperature: 55°F (13°C)

Dew Point: 32°F (0°C)

Humidity: 41%

Barometer: 30.12 in (1020 hPa)

Summary: Light rain

Clouds: Overcast

Visibility: 10 miles (16 km)

Cloud details: Partly cloudy 6000 ft
Mostly cloudy 8000 ft
Overcast 9500 ft


2018/02/24 19:52 KTAN 241952Z AUTO 34004KT 10SM -RA SCT060 BKN080 OVC095 13/00 A3012 RMK AO2 RAB52 SLP199 P0000 T01280000

KPYM - Plymouth, Massachusetts, USA


Distance from station: SE 44mi, 72km

Updated Sat Feb 24, 2018 2:52pm EST

Overcast

Overcast

Wind from WNW

Wind:

WNW 8 mph , 13 km/h

Temperature: 55°F (13°C)

Dew Point: 34°F (1°C)

Humidity: 44%

Barometer: 30.13 in (1020.3 hPa)

Clouds: Overcast

Visibility: 10 miles (16 km)

Cloud details: Mostly cloudy 8000 ft
Overcast 9500 ft


2018/02/24 19:52 KPYM 241952Z AUTO 29007KT 10SM BKN080 OVC095 13/01 A3013 RMK AO2 SLP202 T01330011

KAFN - Jaffrey, New Hampshire, USA


Distance from station: WNW 46mi, 74km

Updated Sat Feb 24, 2018 2:52pm EST

Overcast

Overcast

Wind from calm

Wind:

Calm

Temperature: 46°F (8°C)

Dew Point: 34°F (1°C)

Humidity: 62%

Barometer: 30.09 in (1019 hPa)

Clouds: Overcast

Visibility: 10 miles (16 km)

Cloud details: Overcast 10000 ft


2018/02/24 19:52 KAFN 241952Z AUTO 00000KT 10SM OVC100 08/01 A3009 RMK AO2 SLP202 T00780006

KPSM - Portsmouth/Pease, New Hampshire, USA


Distance from station: NNE 48mi, 78km

Updated Sat Feb 24, 2018 2:56pm EST

Overcast

Overcast

Wind from WNW

Wind:

WNW 15 mph , 24 km/h

Temperature: 50°F (10°C)

Wind Chill: 45°F (7°C)

Dew Point: 30°F (-1°C)

Humidity: 47%

Barometer: 30.09 in (1019 hPa)

Clouds: Overcast

Visibility: 10 miles (16 km)

Cloud details: Few Clouds 4000 ft
Mostly cloudy 11000 ft
Mostly cloudy 14000 ft
Overcast 25000 ft


2018/02/24 19:56 KPSM 241956Z 30013KT 10SM FEW040 BKN110 BKN140 OVC250 10/M01 A3009 RMK AO2A SLP192 T00971011

KPVD - Providence/Green, Rhode Island, USA


Distance from station: S 51mi, 82km

Updated Sat Feb 24, 2018 2:51pm EST

Light rain, Overcast

Light rain, Overcast

Wind from NW

Wind:

NW 6 mph , 9 km/h

Temperature: 54°F (12°C)

Dew Point: 37°F (3°C)

Humidity: 54%

Barometer: 30.11 in (1019.6 hPa)

Summary: Light rain

Clouds: Overcast

Visibility: 9 miles (14 km)

Cloud details: Few Clouds 4700 ft
Few Clouds 7000 ft
Overcast 8500 ft


2018/02/24 19:51 KPVD 241951Z 31005KT 9SM -RA FEW047 FEW070 OVC085 12/03 A3011 RMK AO2 SLP197 RAB14 P0001 T01170033

KCON - Concord, New Hampshire, USA


Distance from station: NNW 54mi, 87km

Updated Sat Feb 24, 2018 2:51pm EST

Clear

Clear

Wind from N

Wind:

N 13 mph , 20 km/h

Temperature: 46°F (8°C)

Wind Chill: 40°F (4°C)

Dew Point: 34°F (1°C)

Humidity: 62%

Barometer: 30.11 in (1019.6 hPa)

Clouds: Clear

Visibility: 10 miles (16 km)


2018/02/24 19:51 KCON 241951Z AUTO 36011KT 10SM CLR 08/01 A3011 RMK AO2 SLP200 T00830006

KEWB - New Bedford, Massachusetts, USA


Distance from station: SSE 54mi, 87km

Updated Sat Feb 24, 2018 2:53pm EST

Light rain, Overcast

Light rain, Overcast

Wind from N

Wind:

N 3 mph , 6 km/h

Temperature: 54°F (12°C)

Dew Point: 36°F (2°C)

Humidity: 51%

Barometer: 30.11 in (1019.6 hPa)

Summary: Light rain

Clouds: Overcast

Visibility: 10 miles (16 km)

Cloud details: Partly cloudy 6000 ft
Overcast 8500 ft


2018/02/24 19:53 KEWB 241953Z 36003KT 10SM -RA SCT060 OVC085 12/02 A3011 RMK AO2 RAB43 SLP196 P0000 T01220022

KMWN - Mount Washington, New Hampshire, USA


Distance from station: N 126mi, 203km

Updated Sat Feb 24, 2018 2:48pm EST

Freezing fog, Overcast

Freezing fog, Overcast

Wind from WNW

Wind:

WNW 60 mph , 96 km/h,
Gust: 68 mph , 109 km/h

Temperature: 14°F (-10°C)

Wind Chill: -13°F (-25°C)

Dew Point: 14°F (-10°C)

Humidity: 100%

Summary: Freezing Fog

Clouds: Overcast

Visibility: 0 miles (0 km)

Cloud details: Overcast 0 ft


2018/02/24 19:48 KMWN 241948Z 29052G59KT 0SM FZFG VV000 M10/M10 RMK VRY LGT ICG